createdAt,value
2022-07-29T00:01:39.084Z,47.44
2022-07-29T00:04:29.686Z,47.49
2022-07-29T00:07:20.780Z,47.79
2022-07-29T00:10:11.685Z,48.05
2022-07-29T00:13:02.506Z,48.09
2022-07-29T00:15:53.095Z,48.42
2022-07-29T00:18:43.840Z,48.59
2022-07-29T00:21:35.062Z,48.56
2022-07-29T00:24:27.959Z,48.70
2022-07-29T00:27:18.209Z,48.94
2022-07-29T00:30:10.183Z,49.06
2022-07-29T00:33:01.497Z,49.08
2022-07-29T00:35:51.583Z,49.28
2022-07-29T00:38:46.290Z,49.45
2022-07-29T00:41:36.946Z,49.61
2022-07-29T00:44:27.068Z,49.57
2022-07-29T00:47:17.780Z,49.60
2022-07-29T00:50:10.693Z,49.51
2022-07-29T00:53:01.219Z,49.43
2022-07-29T00:55:52.455Z,49.49
2022-07-29T00:58:46.519Z,49.44
2022-07-29T01:01:37.026Z,49.28
2022-07-29T01:04:28.244Z,49.10
2022-07-29T01:07:19.865Z,49.11
2022-07-29T01:10:12.546Z,49.16
2022-07-29T01:13:03.828Z,48.91
2022-07-29T01:16:04.107Z,48.96
2022-07-29T01:18:59.609Z,48.91
2022-07-29T01:21:57.837Z,48.72
2022-07-29T01:25:05.425Z,48.52
2022-07-29T01:28:23.676Z,48.67
2022-07-29T01:31:25.333Z,48.67
2022-07-29T01:34:26.304Z,48.46
2022-07-29T01:37:22.272Z,48.59
2022-07-29T01:40:22.252Z,48.47
2022-07-29T01:43:16.923Z,48.61
2022-07-29T01:46:12.142Z,48.35
2022-07-29T01:49:11.553Z,48.55
2022-07-29T01:52:06.375Z,48.67
2022-07-29T01:55:01.114Z,48.50
2022-07-29T01:57:52.391Z,48.45
2022-07-29T02:00:44.545Z,48.53
2022-07-29T02:03:40.246Z,48.50
2022-07-29T02:06:33.308Z,48.63
2022-07-29T02:09:24.707Z,48.85
2022-07-29T02:12:17.343Z,49.24
2022-07-29T02:15:10.885Z,49.46
2022-07-29T02:18:08.319Z,49.67
2022-07-29T02:21:01.796Z,49.75
2022-07-29T02:23:53.992Z,49.98
2022-07-29T02:26:46.789Z,50.16
2022-07-29T02:29:38.210Z,50.22
2022-07-29T02:32:30.592Z,50.16
2022-07-29T02:35:22.527Z,50.33
2022-07-29T02:38:32.238Z,50.37
2022-07-29T02:41:26.367Z,50.32
2022-07-29T02:44:19.287Z,50.45
2022-07-29T02:47:18.710Z,50.56
2022-07-29T02:50:14.313Z,50.61
2022-07-29T02:53:10.071Z,50.77
2022-07-29T02:56:03.904Z,50.66
2022-07-29T02:58:59.263Z,50.61
2022-07-29T03:01:50.779Z,50.67
2022-07-29T03:04:45.592Z,50.82
2022-07-29T03:07:38.560Z,50.83
2022-07-29T03:10:30.480Z,51.00
2022-07-29T03:13:21.214Z,50.88
2022-07-29T03:16:14.024Z,50.91
2022-07-29T03:19:05.361Z,51.01
2022-07-29T03:21:58.173Z,51.13
2022-07-29T03:24:48.478Z,51.09
2022-07-29T03:27:39.244Z,51.18
2022-07-29T03:30:31.729Z,51.16
2022-07-29T03:33:22.554Z,51.29
2022-07-29T03:36:12.856Z,51.29
2022-07-29T03:39:04.315Z,51.35
2022-07-29T03:41:58.873Z,51.22
2022-07-29T03:44:53.101Z,51.12
2022-07-29T03:47:51.089Z,51.09
2022-07-29T03:50:42.437Z,51.08
2022-07-29T03:53:33.387Z,50.87
2022-07-29T03:56:26.056Z,50.68
2022-07-29T03:59:20.748Z,50.79
2022-07-29T04:02:14.926Z,50.66
2022-07-29T04:05:14.032Z,50.70
2022-07-29T04:08:04.437Z,50.69
2022-07-29T04:10:54.989Z,50.74
2022-07-29T04:13:45.400Z,50.82
2022-07-29T04:16:35.581Z,50.92
2022-07-29T04:19:25.555Z,50.97
2022-07-29T04:22:15.502Z,51.09
2022-07-29T04:25:06.355Z,50.98
2022-07-29T04:28:02.579Z,50.93
2022-07-29T04:30:55.877Z,50.87
2022-07-29T04:33:47.558Z,50.86
2022-07-29T04:36:38.560Z,50.72
2022-07-29T04:39:30.477Z,50.81
2022-07-29T04:42:27.804Z,50.66
2022-07-29T04:45:22.322Z,50.83
2022-07-29T04:48:13.669Z,50.62
2022-07-29T04:51:03.521Z,50.64
2022-07-29T04:53:54.245Z,50.66
2022-07-29T04:56:47.446Z,50.39
2022-07-29T04:59:38.018Z,50.15
2022-07-29T05:02:28.777Z,49.94
2022-07-29T05:05:19.288Z,49.91
2022-07-29T05:08:09.475Z,49.87
2022-07-29T05:11:11.468Z,49.79
2022-07-29T05:14:02.686Z,49.79
2022-07-29T05:16:54.289Z,49.67
2022-07-29T05:19:44.900Z,49.91
2022-07-29T05:22:35.258Z,50.01
2022-07-29T05:25:43.139Z,50.08
2022-07-29T05:28:37.316Z,49.77
2022-07-29T05:31:29.146Z,49.92
2022-07-29T05:34:19.990Z,49.97
2022-07-29T05:37:10.822Z,50.08
2022-07-29T05:40:01.186Z,49.92
2022-07-29T05:42:52.751Z,50.00
2022-07-29T05:45:49.298Z,49.98
2022-07-29T05:48:41.553Z,49.85
2022-07-29T05:51:32.344Z,49.89
2022-07-29T05:54:22.754Z,49.98
2022-07-29T05:57:17.141Z,49.97
2022-07-29T06:00:09.172Z,49.95
2022-07-29T06:03:04.887Z,49.72
2022-07-29T06:05:55.357Z,49.78
2022-07-29T06:08:45.833Z,49.65
2022-07-29T06:11:36.844Z,49.79
2022-07-29T06:14:27.619Z,49.74
2022-07-29T06:17:18.895Z,49.78
2022-07-29T06:20:10.897Z,49.82
2022-07-29T06:23:00.999Z,49.71
2022-07-29T06:25:51.285Z,49.88
2022-07-29T06:28:41.695Z,49.66
2022-07-29T06:31:32.723Z,49.75
2022-07-29T06:34:23.147Z,49.92
2022-07-29T06:37:15.423Z,49.78
2022-07-29T06:40:21.642Z,49.79
2022-07-29T06:43:12.520Z,49.81
2022-07-29T06:46:05.148Z,49.70
2022-07-29T06:48:56.227Z,49.78
2022-07-29T06:51:46.439Z,49.59
2022-07-29T06:54:37.263Z,49.61
2022-07-29T06:57:29.040Z,49.56
2022-07-29T07:00:21.246Z,49.64
2022-07-29T07:03:12.427Z,49.65
2022-07-29T07:06:02.462Z,49.51
2022-07-29T07:08:53.072Z,49.54
2022-07-29T07:11:43.668Z,49.77
2022-07-29T07:14:34.744Z,49.80
2022-07-29T07:17:25.383Z,49.84
2022-07-29T07:20:16.385Z,49.79
2022-07-29T07:23:07.554Z,50.01
2022-07-29T07:25:59.405Z,49.85
2022-07-29T07:28:49.795Z,49.90
2022-07-29T07:31:40.780Z,49.84
2022-07-29T07:34:31.719Z,49.83
2022-07-29T07:37:22.123Z,49.78
2022-07-29T07:40:18.688Z,49.79
2022-07-29T07:43:09.648Z,49.84
2022-07-29T07:46:02.834Z,50.00
2022-07-29T07:48:54.801Z,49.88
2022-07-29T07:51:50.311Z,50.08
2022-07-29T07:54:41.814Z,50.35
2022-07-29T07:57:32.644Z,50.43
2022-07-29T08:00:23.700Z,50.61
2022-07-29T08:03:17.018Z,50.79
2022-07-29T08:06:08.665Z,50.81
2022-07-29T08:09:19.542Z,50.94
2022-07-29T08:12:09.809Z,50.85
2022-07-29T08:15:02.517Z,50.76
2022-07-29T08:17:52.591Z,50.66
2022-07-29T08:20:43.021Z,50.62
2022-07-29T08:23:47.062Z,50.68
2022-07-29T08:26:40.450Z,50.46
2022-07-29T08:29:31.949Z,50.60
2022-07-29T08:32:50.910Z,50.71
2022-07-29T08:35:35.681Z,50.82
2022-07-29T08:38:28.482Z,50.75
2022-07-29T08:41:20.136Z,50.79
2022-07-29T08:44:11.038Z,50.79
2022-07-29T08:47:04.307Z,50.68
2022-07-29T08:49:54.703Z,50.65
2022-07-29T08:52:48.061Z,50.81
2022-07-29T08:55:41.334Z,50.86
2022-07-29T08:58:37.001Z,50.88
2022-07-29T09:01:35.740Z,50.80
2022-07-29T09:04:29.729Z,51.01
2022-07-29T09:07:20.889Z,50.94
2022-07-29T09:10:12.233Z,50.98
2022-07-29T09:13:02.214Z,50.81
2022-07-29T09:15:55.061Z,50.63
2022-07-29T09:18:47.154Z,50.58
2022-07-29T09:22:03.000Z,50.37
2022-07-29T09:24:56.492Z,50.47
2022-07-29T09:27:53.687Z,50.50
2022-07-29T09:30:54.916Z,50.56
2022-07-29T09:33:45.522Z,50.42
2022-07-29T09:36:43.396Z,50.59
2022-07-29T09:39:35.526Z,50.59
2022-07-29T09:42:34.983Z,50.60
2022-07-29T09:45:35.906Z,50.58
2022-07-29T09:48:27.142Z,50.60
2022-07-29T09:51:38.027Z,50.35
2022-07-29T09:54:29.843Z,50.04
2022-07-29T09:57:31.418Z,50.14
2022-07-29T10:00:26.328Z,50.22
2022-07-29T10:03:17.128Z,49.92
2022-07-29T10:06:12.467Z,49.96
2022-07-29T10:09:12.385Z,50.01
2022-07-29T10:12:15.633Z,49.96
2022-07-29T10:15:08.285Z,50.10
2022-07-29T10:18:00.106Z,50.31
2022-07-29T10:20:50.764Z,50.38
2022-07-29T10:23:46.261Z,50.28
2022-07-29T10:26:42.297Z,50.38
2022-07-29T10:29:33.965Z,50.43
2022-07-29T10:32:42.642Z,50.58
2022-07-29T10:35:44.495Z,50.77
2022-07-29T10:39:03.249Z,50.45
2022-07-29T10:42:09.177Z,50.59
2022-07-29T10:44:59.967Z,50.68
2022-07-29T10:47:50.612Z,50.57
2022-07-29T10:51:03.918Z,50.45
2022-07-29T10:53:55.400Z,50.26
2022-07-29T10:56:45.731Z,50.33
2022-07-29T10:59:38.829Z,50.28
2022-07-29T11:02:52.387Z,50.18
2022-07-29T11:06:00.173Z,49.94
2022-07-29T11:09:25.884Z,49.77
2022-07-29T11:12:50.834Z,49.74
2022-07-29T11:15:57.329Z,49.82
2022-07-29T11:19:26.637Z,49.81
2022-07-29T11:22:43.031Z,49.66
2022-07-29T11:25:50.989Z,49.63
2022-07-29T11:28:53.155Z,49.61
2022-07-29T11:31:47.775Z,49.33
2022-07-29T11:34:41.852Z,49.33
2022-07-29T11:37:33.679Z,49.45
2022-07-29T11:40:32.809Z,49.47
2022-07-29T11:43:50.857Z,49.53
2022-07-29T11:46:54.064Z,49.58
2022-07-29T11:49:49.931Z,49.80
2022-07-29T11:52:49.955Z,49.76
2022-07-29T11:55:50.772Z,49.92
2022-07-29T11:58:43.427Z,49.92
2022-07-29T12:01:34.448Z,49.76
2022-07-29T12:04:25.889Z,49.90
2022-07-29T12:07:17.292Z,49.94
2022-07-29T12:10:11.301Z,50.14
2022-07-29T12:13:06.392Z,49.85
2022-07-29T12:16:02.326Z,49.39
2022-07-29T12:19:02.329Z,49.67
2022-07-29T12:21:59.877Z,49.64
2022-07-29T12:24:54.553Z,49.64
2022-07-29T12:27:49.815Z,49.95
2022-07-29T12:30:45.960Z,50.27
2022-07-29T12:33:37.906Z,50.70
2022-07-29T12:36:27.796Z,51.08
2022-07-29T12:39:20.954Z,51.14
2022-07-29T12:42:18.354Z,51.38
2022-07-29T12:45:10.580Z,51.62
2022-07-29T12:48:01.083Z,51.60
2022-07-29T12:50:59.684Z,51.57
2022-07-29T12:54:08.063Z,52.08
2022-07-29T12:57:05.704Z,52.42
2022-07-29T13:00:15.038Z,52.54
2022-07-29T13:03:07.285Z,52.60
2022-07-29T13:05:59.706Z,52.66
2022-07-29T13:09:19.807Z,52.83
2022-07-29T13:12:12.725Z,52.47
2022-07-29T13:15:03.141Z,52.47
2022-07-29T13:17:54.149Z,52.54
2022-07-29T13:20:44.030Z,52.12
2022-07-29T13:23:38.355Z,52.51
2022-07-29T13:26:28.994Z,53.18
2022-07-29T13:29:18.864Z,53.26
2022-07-29T13:32:09.508Z,53.39
2022-07-29T13:35:05.485Z,53.68
2022-07-29T13:37:55.803Z,53.90
2022-07-29T13:40:47.183Z,54.27
2022-07-29T13:43:37.744Z,54.06
2022-07-29T13:46:27.750Z,53.78
2022-07-29T13:49:18.291Z,54.60
2022-07-29T13:52:08.955Z,54.92
2022-07-29T13:54:59.649Z,54.87
2022-07-29T13:57:50.412Z,54.68
2022-07-29T14:00:40.594Z,55.23
2022-07-29T14:03:31.245Z,55.13
2022-07-29T14:06:22.295Z,54.70
2022-07-29T14:09:12.431Z,54.83
2022-07-29T14:12:03.631Z,54.66
2022-07-29T14:14:54.336Z,54.68
2022-07-29T14:17:44.619Z,54.85
2022-07-29T14:20:35.166Z,55.64
2022-07-29T14:23:25.643Z,56.07
2022-07-29T14:26:21.702Z,56.11
2022-07-29T14:29:14.611Z,56.41
2022-07-29T14:32:04.723Z,56.63
2022-07-29T14:34:54.864Z,57.09
2022-07-29T14:37:44.829Z,57.31
2022-07-29T14:40:34.596Z,57.48
2022-07-29T14:43:24.903Z,57.46
2022-07-29T14:46:15.090Z,57.52
2022-07-29T14:49:06.721Z,57.46
2022-07-29T14:51:59.789Z,57.34
2022-07-29T14:54:50.377Z,57.56
2022-07-29T14:57:40.304Z,57.89
2022-07-29T15:00:33.317Z,57.87
2022-07-29T15:03:24.406Z,57.91
2022-07-29T15:06:14.969Z,57.90
2022-07-29T15:09:05.095Z,57.58
2022-07-29T15:11:55.376Z,57.60
2022-07-29T15:14:45.700Z,57.76
2022-07-29T15:17:35.492Z,58.07
2022-07-29T15:20:28.145Z,58.29
2022-07-29T15:23:17.930Z,58.54
2022-07-29T15:26:08.488Z,58.52
2022-07-29T15:28:58.472Z,58.59
2022-07-29T15:31:49.738Z,58.45
2022-07-29T15:34:40.387Z,58.21
2022-07-29T15:37:49.372Z,58.17
2022-07-29T15:40:42.277Z,58.04
2022-07-29T15:43:32.297Z,57.84
2022-07-29T15:46:40.576Z,57.78
2022-07-29T15:49:47.164Z,57.78
2022-07-29T15:52:39.192Z,57.31
2022-07-29T15:55:31.682Z,57.21
2022-07-29T15:58:21.944Z,56.79
2022-07-29T16:01:12.397Z,57.04
2022-07-29T16:04:03.086Z,57.09
2022-07-29T16:06:53.600Z,57.03
2022-07-29T16:09:46.229Z,56.80
2022-07-29T16:12:41.413Z,57.16
2022-07-29T16:15:31.842Z,57.03
2022-07-29T16:18:22.323Z,56.96
2022-07-29T16:21:20.534Z,56.61
2022-07-29T16:24:11.266Z,55.94
2022-07-29T16:27:01.853Z,56.05
2022-07-29T16:29:52.694Z,56.06
2022-07-29T16:32:43.065Z,55.81
2022-07-29T16:35:39.258Z,55.63
2022-07-29T16:38:30.506Z,55.72
2022-07-29T16:41:21.211Z,55.73
2022-07-29T16:44:12.076Z,55.75
2022-07-29T16:47:02.294Z,55.68
2022-07-29T16:49:54.278Z,55.78
2022-07-29T16:52:44.913Z,55.36
2022-07-29T16:55:35.308Z,55.26
2022-07-29T16:58:26.142Z,55.41
2022-07-29T17:01:18.299Z,55.26
2022-07-29T17:04:08.823Z,55.42
2022-07-29T17:06:59.995Z,55.41
2022-07-29T17:09:55.433Z,55.61
2022-07-29T17:12:46.758Z,55.80
2022-07-29T17:15:39.714Z,55.58
2022-07-29T17:18:30.694Z,55.54
2022-07-29T17:21:21.366Z,55.51
2022-07-29T17:24:12.684Z,55.43
2022-07-29T17:27:03.243Z,55.47
2022-07-29T17:29:53.825Z,55.70
2022-07-29T17:32:44.324Z,55.32
2022-07-29T17:35:53.055Z,55.08
2022-07-29T17:38:43.324Z,54.76
2022-07-29T17:41:34.331Z,54.62
2022-07-29T17:44:24.864Z,54.46
2022-07-29T17:47:16.163Z,54.49
2022-07-29T17:50:07.546Z,54.50
2022-07-29T17:52:58.182Z,54.49
2022-07-29T17:55:49.726Z,54.37
2022-07-29T17:58:41.261Z,54.36
2022-07-29T18:01:31.522Z,54.35
2022-07-29T18:04:23.594Z,54.21
2022-07-29T18:07:13.826Z,53.86
2022-07-29T18:10:05.733Z,53.68
2022-07-29T18:12:55.558Z,53.72
2022-07-29T18:15:46.860Z,53.70
2022-07-29T18:18:37.070Z,53.44
2022-07-29T18:21:37.601Z,53.61
2022-07-29T18:24:39.317Z,53.70
2022-07-29T18:27:30.059Z,53.83
2022-07-29T18:30:20.587Z,53.99
2022-07-29T18:33:28.285Z,53.88
2022-07-29T18:36:19.610Z,53.99
2022-07-29T18:39:10.210Z,53.97
2022-07-29T18:42:03.229Z,54.09
2022-07-29T18:44:53.670Z,53.97
2022-07-29T18:47:44.219Z,53.90
2022-07-29T18:50:38.205Z,53.93
2022-07-29T18:53:28.347Z,53.77
2022-07-29T18:56:18.354Z,53.91
2022-07-29T18:59:08.366Z,53.80
2022-07-29T19:01:59.011Z,53.96
2022-07-29T19:04:51.099Z,53.79
2022-07-29T19:07:41.830Z,53.64
2022-07-29T19:10:32.449Z,53.63
2022-07-29T19:13:23.129Z,53.61
2022-07-29T19:16:14.375Z,53.60
2022-07-29T19:19:06.139Z,53.61
2022-07-29T19:21:56.570Z,53.74
2022-07-29T19:24:47.373Z,53.57
2022-07-29T19:27:41.539Z,53.56
2022-07-29T19:30:32.754Z,53.57
2022-07-29T19:33:23.286Z,53.57
2022-07-29T19:36:14.449Z,53.42
2022-07-29T19:39:05.014Z,53.57
2022-07-29T19:41:59.207Z,53.44
2022-07-29T19:44:54.026Z,53.48
2022-07-29T19:47:46.313Z,53.55
2022-07-29T19:50:37.097Z,53.75
2022-07-29T19:53:27.657Z,53.76
2022-07-29T19:56:18.350Z,53.82
2022-07-29T19:59:10.643Z,53.87
2022-07-29T20:02:00.843Z,53.93
2022-07-29T20:04:51.334Z,53.94
2022-07-29T20:07:42.169Z,53.69
2022-07-29T20:10:35.101Z,53.63
2022-07-29T20:13:25.490Z,53.48
2022-07-29T20:16:15.974Z,53.45
2022-07-29T20:19:06.623Z,53.46
2022-07-29T20:21:56.900Z,53.41
2022-07-29T20:24:47.414Z,53.51
2022-07-29T20:27:40.474Z,53.55
2022-07-29T20:30:32.907Z,53.57
2022-07-29T20:33:23.305Z,53.45
2022-07-29T20:36:13.296Z,53.39
2022-07-29T20:39:05.593Z,53.49
2022-07-29T20:41:57.699Z,53.38
2022-07-29T20:44:49.706Z,53.37
2022-07-29T20:47:40.586Z,53.57
2022-07-29T20:50:30.325Z,53.53
2022-07-29T20:53:20.722Z,53.86
2022-07-29T20:56:12.544Z,53.73
2022-07-29T20:59:03.365Z,53.51
2022-07-29T21:01:55.847Z,53.64
2022-07-29T21:04:46.877Z,53.57
2022-07-29T21:07:37.113Z,53.45
2022-07-29T21:10:28.521Z,53.67
2022-07-29T21:13:18.948Z,53.70
2022-07-29T21:16:14.742Z,53.87
2022-07-29T21:19:05.279Z,53.91
2022-07-29T21:21:55.123Z,54.17
2022-07-29T21:24:44.686Z,54.21
2022-07-29T21:27:52.647Z,54.13
2022-07-29T21:30:42.617Z,54.13
2022-07-29T21:33:33.851Z,53.96
2022-07-29T21:39:33.786Z,54.19
2022-07-29T21:42:23.820Z,54.18
2022-07-29T21:45:15.103Z,54.34
2022-07-29T21:48:05.605Z,54.25
2022-07-29T21:50:53.027Z,54.33
2022-07-29T21:53:42.898Z,54.39
2022-07-29T21:56:34.284Z,54.34
2022-07-29T21:59:25.487Z,54.39
2022-07-29T22:02:16.805Z,54.20
2022-07-29T22:05:07.108Z,54.27
2022-07-29T22:07:57.708Z,54.35
2022-07-29T22:10:48.307Z,54.08
2022-07-29T22:13:39.566Z,54.22
2022-07-29T22:16:31.101Z,54.18
2022-07-29T22:19:21.783Z,54.08
2022-07-29T22:22:18.225Z,54.23
2022-07-29T22:25:10.165Z,54.25
2022-07-29T22:28:00.219Z,54.31
2022-07-29T22:30:50.663Z,54.26
2022-07-29T22:33:41.210Z,54.27
2022-07-29T22:36:31.503Z,54.31
2022-07-29T22:39:22.261Z,54.46
2022-07-29T22:42:14.991Z,54.37
2022-07-29T22:45:06.882Z,54.27
2022-07-29T22:47:59.211Z,54.31
2022-07-29T22:50:50.678Z,54.22
2022-07-29T22:53:41.003Z,54.48
2022-07-29T22:56:31.807Z,54.58
2022-07-29T22:59:21.984Z,54.47
2022-07-29T23:02:13.503Z,54.47
2022-07-29T23:05:03.999Z,54.50
2022-07-29T23:07:54.031Z,54.69
2022-07-29T23:10:44.211Z,54.87
2022-07-29T23:13:35.438Z,54.82
2022-07-29T23:16:26.725Z,54.86
2022-07-29T23:19:17.483Z,54.71
2022-07-29T23:22:09.208Z,54.62
2022-07-29T23:24:59.575Z,54.76
2022-07-29T23:27:52.899Z,54.78
2022-07-29T23:30:45.972Z,54.71
2022-07-29T23:33:36.501Z,54.65
2022-07-29T23:36:27.221Z,54.74
2022-07-29T23:39:18.858Z,54.71
2022-07-29T23:42:09.781Z,54.58
2022-07-29T23:45:00.155Z,54.35
2022-07-29T23:47:50.724Z,54.27
2022-07-29T23:50:41.025Z,54.19
2022-07-29T23:53:32.438Z,54.27
2022-07-29T23:56:23.713Z,54.22
2022-07-29T23:59:15.275Z,54.18
